GUANT EGNH-EGNH

Flight info

Callsign GUANT
Flight time 0h 22m
Altitude 3000
Route LOCAL NORTH
Aircraft PA28/L-V/N

Departure

Time 2026-04-30 19:35
Airport Blackpool Airport (EGNH)

Arrival

Time 2026-04-30 19:58
Airport Blackpool Airport (EGNH)
Time Latitude Longitude Altitude Speed Heading
2026-04-30 19:28 53.77705 -3.04322 34 ft 0 kts 266°
2026-04-30 19:29 53.77705 -3.04326 34 ft 4 kts 266°
2026-04-30 19:30 53.77533 -3.04284 34 ft 0 kts 180°
2026-04-30 19:33 53.77527 -3.04288 34 ft 9 kts 208°
2026-04-30 19:33 53.77409 -3.04398 34 ft 10 kts 201°
2026-04-30 19:33 53.77402 -3.04402 34 ft 0 kts 193°
2026-04-30 19:33 53.77297 -3.04378 34 ft 26 kts 155°
2026-04-30 19:34 53.77261 -3.04351 34 ft 0 kts 157°
2026-04-30 19:34 53.77247 -3.04333 33 ft 6 kts 115°
2026-04-30 19:34 53.77196 -3.03612 97 ft 66 kts 96°
2026-04-30 19:35 53.77173 -3.02851 382 ft 68 kts 101°
2026-04-30 19:35 53.77139 -3.02076 723 ft 64 kts 100°
2026-04-30 19:35 53.77373 -3.01452 1094 ft 79 kts 32°
2026-04-30 19:35 53.77960 -3.01547 1367 ft 88 kts 354°
2026-04-30 19:36 53.78599 -3.01729 1577 ft 98 kts 357°
2026-04-30 19:36 53.79260 -3.01918 1863 ft 96 kts
2026-04-30 19:36 53.80581 -3.02223 2552 ft 95 kts
2026-04-30 19:37 53.81231 -3.02396 2829 ft 98 kts
2026-04-30 19:37 53.81965 -3.02522 2967 ft 118 kts 10°
2026-04-30 19:37 53.82816 -3.02443 3024 ft 132 kts 15°
2026-04-30 19:37 53.83679 -3.02220 3244 ft 127 kts 22°
2026-04-30 19:38 53.84557 -3.01820 3294 ft 137 kts 26°
2026-04-30 19:38 53.85472 -3.01315 3342 ft 140 kts 29°
2026-04-30 19:38 53.86382 -3.00793 3466 ft 141 kts 29°
2026-04-30 19:38 53.87290 -3.00160 3364 ft 147 kts 34°
2026-04-30 19:39 53.88167 -2.99365 3367 ft 133 kts 50°
2026-04-30 19:39 53.88461 -2.98178 3455 ft 99 kts 110°
2026-04-30 19:39 53.88019 -2.97571 3558 ft 86 kts 171°
2026-04-30 19:39 53.87412 -2.98269 3072 ft 136 kts 220°
2026-04-30 19:40 53.87185 -2.99911 3055 ft 134 kts 255°
2026-04-30 19:40 53.87241 -3.01338 3171 ft 119 kts 287°
2026-04-30 19:40 53.87925 -3.02085 3242 ft 117 kts
2026-04-30 19:40 53.88599 -3.01674 3348 ft 99 kts 50°
2026-04-30 19:41 53.89146 -3.00921 3337 ft 100 kts 57°
2026-04-30 19:41 53.89647 -3.00185 3301 ft 94 kts 59°
2026-04-30 19:41 53.90064 -2.99426 3232 ft 83 kts 71°
2026-04-30 19:41 53.90350 -2.98689 3240 ft 70 kts 80°
2026-04-30 19:42 53.90574 -2.97995 3242 ft 65 kts 85°
2026-04-30 19:42 53.90760 -2.97300 3148 ft 64 kts 88°
2026-04-30 19:42 53.90918 -2.96599 3061 ft 60 kts 90°
2026-04-30 19:42 53.91074 -2.96032 3088 ft 51 kts 81°
2026-04-30 19:43 53.90983 -2.95439 2747 ft 58 kts 125°
2026-04-30 19:43 53.90793 -2.94917 2815 ft 53 kts 130°
2026-04-30 19:43 53.90541 -2.94392 2929 ft 65 kts 135°
2026-04-30 19:44 53.91232 -2.93140 3289 ft 125 kts 20°
2026-04-30 19:44 53.92142 -2.93126 3523 ft 129 kts 346°
2026-04-30 19:44 53.92930 -2.93841 3700 ft 137 kts 326°
2026-04-30 19:44 53.93778 -2.94714 3778 ft 150 kts 332°
2026-04-30 19:45 53.94741 -2.95504 3826 ft 157 kts 338°
2026-04-30 19:45 53.95767 -2.96039 3908 ft 155 kts 359°
2026-04-30 19:45 53.96606 -2.95177 3935 ft 137 kts 73°
2026-04-30 19:45 53.96613 -2.93670 3986 ft 128 kts 111°
2026-04-30 19:46 53.96358 -2.92222 4060 ft 123 kts 117°
2026-04-30 19:46 53.96049 -2.90977 3967 ft 121 kts 126°
2026-04-30 19:46 53.95648 -2.89864 3966 ft 100 kts 130°
2026-04-30 19:46 53.95278 -2.89093 4009 ft 66 kts 134°
2026-04-30 19:47 53.95071 -2.88530 3944 ft 47 kts 133°
2026-04-30 19:47 53.94887 -2.88082 3857 ft 58 kts 134°
2026-04-30 19:47 53.94536 -2.87753 3968 ft 67 kts 194°
2026-04-30 19:47 53.94428 -2.88706 4131 ft 101 kts 266°
2026-04-30 19:48 53.94578 -2.89896 3910 ft 106 kts 276°
2026-04-30 19:48 53.94826 -2.91089 3719 ft 104 kts 277°
2026-04-30 19:48 53.95067 -2.92250 3522 ft 107 kts 281°
2026-04-30 19:48 53.95225 -2.93440 3287 ft 100 kts 253°
2026-04-30 19:49 53.95064 -2.94502 3131 ft 94 kts 235°
2026-04-30 19:49 53.94602 -2.96782 2986 ft 109 kts 244°
2026-04-30 19:49 53.94418 -2.98106 2809 ft 124 kts 246°
2026-04-30 19:50 53.94223 -2.99579 2613 ft 127 kts 244°
2026-04-30 19:50 53.93934 -3.00967 2380 ft 124 kts 231°
2026-04-30 19:50 53.93547 -3.02338 2165 ft 124 kts 231°
2026-04-30 19:50 53.93181 -3.03684 1985 ft 120 kts 229°
2026-04-30 19:51 53.92711 -3.04833 1825 ft 113 kts 212°
2026-04-30 19:51 53.92146 -3.05483 1833 ft 95 kts 195°
2026-04-30 19:51 53.91526 -3.06107 1611 ft 102 kts 195°
2026-04-30 19:51 53.90889 -3.06587 1672 ft 104 kts 191°
2026-04-30 19:52 53.90179 -3.07072 1638 ft 108 kts 186°
2026-04-30 19:52 53.89482 -3.07511 1675 ft 112 kts 193°
2026-04-30 19:52 53.88735 -3.08075 1626 ft 116 kts 191°
2026-04-30 19:52 53.87956 -3.08489 1505 ft 122 kts 187°
2026-04-30 19:53 53.87141 -3.08890 1473 ft 119 kts 188°
2026-04-30 19:53 53.86360 -3.09299 1435 ft 117 kts 186°
2026-04-30 19:53 53.85550 -3.09578 1285 ft 121 kts 182°
2026-04-30 19:53 53.84733 -3.09762 1245 ft 113 kts 175°
2026-04-30 19:54 53.83963 -3.09596 1122 ft 116 kts 163°
2026-04-30 19:54 53.83157 -3.09296 1014 ft 116 kts 161°
2026-04-30 19:54 53.82420 -3.09009 1074 ft 99 kts 161°
2026-04-30 19:54 53.81843 -3.08644 1115 ft 91 kts 152°
2026-04-30 19:55 53.81200 -3.08240 929 ft 103 kts 159°
2026-04-30 19:55 53.80466 -3.08082 780 ft 112 kts 178°
2026-04-30 19:55 53.79753 -3.08257 915 ft 96 kts 187°
2026-04-30 19:55 53.79110 -3.08512 888 ft 88 kts 179°
2026-04-30 19:56 53.78510 -3.08513 795 ft 86 kts 170°
2026-04-30 19:56 53.77958 -3.08405 772 ft 65 kts 148°
2026-04-30 19:56 53.77585 -3.07870 726 ft 74 kts 129°
2026-04-30 19:56 53.77381 -3.07035 594 ft 87 kts 107°
2026-04-30 19:57 53.77314 -3.05989 448 ft 85 kts 96°
2026-04-30 19:57 53.77275 -3.05037 236 ft 75 kts 103°
2026-04-30 19:57 53.77229 -3.04245 116 ft 61 kts 103°
2026-04-30 19:57 53.77200 -3.03569 47 ft 56 kts 103°
2026-04-30 19:58 53.77152 -3.02978 33 ft 46 kts 95°
2026-04-30 19:58 53.77140 -3.02695 30 ft 15 kts 97°
2026-04-30 19:58 53.77162 -3.02787 30 ft 15 kts 276°
2026-04-30 19:58 53.77182 -3.02978 32 ft 18 kts 339°
2026-04-30 19:59 53.77322 -3.03030 32 ft 24 kts 345°
2026-04-30 19:59 53.77447 -3.03098 33 ft 10 kts 338°
2026-04-30 19:59 53.77413 -3.03402 33 ft 20 kts 246°
2026-04-30 20:00 53.77408 -3.03596 33 ft 8 kts 15°
2026-04-30 20:00 53.77446 -3.03567 33 ft 8 kts
2026-04-30 20:00 53.77526 -3.03552 83 ft 15 kts 10°
2026-04-30 20:00 53.77616 -3.03560 33 ft 8 kts 335°
2026-04-30 20:01 53.77801 -3.03680 34 ft 20 kts 300°
2026-04-30 20:01 53.77775 -3.03932 34 ft 25 kts 252°
2026-04-30 20:01 53.77708 -3.04118 34 ft 15 kts 234°
2026-04-30 20:02 53.77707 -3.04307 34 ft 0 kts 261°